sensor_id;sensor_type;location;lat;lon;timestamp;P1;durP1;ratioP1;P2;durP2;ratioP2
33840;SDS011;20142;28.494;-16.312;2023-03-03T00:01:28;5.78;;;1.20;;
33840;SDS011;20142;28.494;-16.312;2023-03-03T00:06:32;6.50;;;1.50;;
33840;SDS011;20142;28.494;-16.312;2023-03-03T00:11:34;9.60;;;1.75;;
33840;SDS011;20142;28.494;-16.312;2023-03-03T00:16:38;7.35;;;1.50;;
33840;SDS011;20142;28.494;-16.312;2023-03-03T00:21:41;4.43;;;1.65;;
33840;SDS011;20142;28.494;-16.312;2023-03-03T00:26:47;8.88;;;1.30;;
33840;SDS011;20142;28.494;-16.312;2023-03-03T00:32:20;8.73;;;1.35;;
33840;SDS011;20142;28.494;-16.312;2023-03-03T00:42:35;7.20;;;1.25;;
33840;SDS011;20142;28.494;-16.312;2023-03-03T00:47:37;5.30;;;1.08;;
33840;SDS011;20142;28.494;-16.312;2023-03-03T00:53:03;7.15;;;1.17;;
33840;SDS011;20142;28.494;-16.312;2023-03-03T00:58:18;7.85;;;1.23;;
33840;SDS011;20142;28.494;-16.312;2023-03-03T01:03:22;6.47;;;1.10;;
33840;SDS011;20142;28.494;-16.312;2023-03-03T01:08:26;6.95;;;1.42;;
33840;SDS011;20142;28.494;-16.312;2023-03-03T01:13:29;6.18;;;0.82;;
33840;SDS011;20142;28.494;-16.312;2023-03-03T01:18:33;6.38;;;1.27;;
33840;SDS011;20142;28.494;-16.312;2023-03-03T01:23:36;8.40;;;1.30;;
33840;SDS011;20142;28.494;-16.312;2023-03-03T01:28:38;9.73;;;1.50;;
33840;SDS011;20142;28.494;-16.312;2023-03-03T01:33:40;7.72;;;1.35;;
33840;SDS011;20142;28.494;-16.312;2023-03-03T01:38:41;5.82;;;1.30;;
33840;SDS011;20142;28.494;-16.312;2023-03-03T01:43:44;5.68;;;1.58;;
33840;SDS011;20142;28.494;-16.312;2023-03-03T01:48:50;10.27;;;1.70;;
33840;SDS011;20142;28.494;-16.312;2023-03-03T01:54:04;8.23;;;1.38;;
33840;SDS011;20142;28.494;-16.312;2023-03-03T01:59:17;9.27;;;1.92;;
33840;SDS011;20142;28.494;-16.312;2023-03-03T02:04:24;7.63;;;1.77;;
33840;SDS011;20142;28.494;-16.312;2023-03-03T02:09:36;7.97;;;1.60;;
33840;SDS011;20142;28.494;-16.312;2023-03-03T02:15:16;8.43;;;1.70;;
33840;SDS011;20142;28.494;-16.312;2023-03-03T02:20:44;13.27;;;1.92;;
33840;SDS011;20142;28.494;-16.312;2023-03-03T02:31:19;7.22;;;1.55;;
33840;SDS011;20142;28.494;-16.312;2023-03-03T02:36:25;7.25;;;1.65;;
33840;SDS011;20142;28.494;-16.312;2023-03-03T02:41:49;5.33;;;1.60;;
33840;SDS011;20142;28.494;-16.312;2023-03-03T02:46:56;9.98;;;1.63;;
33840;SDS011;20142;28.494;-16.312;2023-03-03T02:51:58;9.95;;;1.70;;
33840;SDS011;20142;28.494;-16.312;2023-03-03T02:57:02;7.88;;;1.60;;
33840;SDS011;20142;28.494;-16.312;2023-03-03T03:02:05;7.50;;;1.60;;
33840;SDS011;20142;28.494;-16.312;2023-03-03T03:07:08;10.13;;;2.33;;
33840;SDS011;20142;28.494;-16.312;2023-03-03T03:12:11;7.93;;;1.70;;
33840;SDS011;20142;28.494;-16.312;2023-03-03T03:17:13;8.15;;;1.67;;
33840;SDS011;20142;28.494;-16.312;2023-03-03T03:22:14;8.93;;;1.95;;
33840;SDS011;20142;28.494;-16.312;2023-03-03T03:27:16;8.73;;;1.40;;
33840;SDS011;20142;28.494;-16.312;2023-03-03T03:32:19;5.82;;;0.90;;
33840;SDS011;20142;28.494;-16.312;2023-03-03T03:37:20;7.45;;;1.27;;
33840;SDS011;20142;28.494;-16.312;2023-03-03T03:42:22;6.90;;;1.00;;
33840;SDS011;20142;28.494;-16.312;2023-03-03T03:47:24;6.53;;;1.35;;
33840;SDS011;20142;28.494;-16.312;2023-03-03T03:52:25;6.55;;;1.13;;
33840;SDS011;20142;28.494;-16.312;2023-03-03T03:57:27;6.28;;;1.60;;
33840;SDS011;20142;28.494;-16.312;2023-03-03T04:02:28;8.48;;;1.88;;
33840;SDS011;20142;28.494;-16.312;2023-03-03T04:07:30;5.57;;;1.15;;
33840;SDS011;20142;28.494;-16.312;2023-03-03T04:12:32;9.70;;;1.83;;
33840;SDS011;20142;28.494;-16.312;2023-03-03T04:17:38;5.63;;;1.30;;
33840;SDS011;20142;28.494;-16.312;2023-03-03T04:22:40;7.20;;;1.55;;
33840;SDS011;20142;28.494;-16.312;2023-03-03T04:27:43;15.57;;;2.20;;
33840;SDS011;20142;28.494;-16.312;2023-03-03T04:32:45;13.35;;;2.85;;
33840;SDS011;20142;28.494;-16.312;2023-03-03T04:37:47;10.50;;;2.20;;
33840;SDS011;20142;28.494;-16.312;2023-03-03T04:42:49;17.60;;;2.88;;
33840;SDS011;20142;28.494;-16.312;2023-03-03T04:47:50;13.20;;;3.00;;
33840;SDS011;20142;28.494;-16.312;2023-03-03T04:52:52;11.95;;;2.30;;
33840;SDS011;20142;28.494;-16.312;2023-03-03T04:57:53;15.82;;;2.45;;
33840;SDS011;20142;28.494;-16.312;2023-03-03T05:02:55;13.63;;;2.50;;
33840;SDS011;20142;28.494;-16.312;2023-03-03T05:07:57;13.35;;;2.42;;
33840;SDS011;20142;28.494;-16.312;2023-03-03T05:12:59;15.13;;;2.97;;
33840;SDS011;20142;28.494;-16.312;2023-03-03T05:18:00;13.15;;;2.15;;
33840;SDS011;20142;28.494;-16.312;2023-03-03T05:23:03;9.05;;;2.08;;
33840;SDS011;20142;28.494;-16.312;2023-03-03T05:28:04;6.90;;;2.10;;
33840;SDS011;20142;28.494;-16.312;2023-03-03T05:33:06;10.60;;;1.90;;
33840;SDS011;20142;28.494;-16.312;2023-03-03T05:38:09;11.70;;;1.67;;
